Pagrindinis puslapis
METAR-TAF:

METAR-TAF

Oro uostai :

Triestas-Ronchi dei Legionari, Italija

platuma: 45-49N, ilguma: 013-29E, Aukštis: 12 m

Dabartinis oras

Ataskaita buvo paskelbta 26 minutes, ne 03:50 UTC
Vėjas 3 kt iš Šiaurės/Šiaurės Rytų
Temperatūra 3°C
Drėgmė 100%
Slėgis 1022 hPa
Matomumas: 4400 m
rūkana

METAR: LIPQ 180350Z AUTO 02003KT 4400 BR SCT082/// OVC180/// 03/03 Q1022

Laikas: 05:16 (04:16 UTC)

Prognozė

Ataskaita buvo paskelbta 5 valandos ir 16 minutes, ne 23:00 UTC
Prognozė galioja nuo 18 metu 00 UTC su 18 metu 24 UTC
Vėjas 4 kt nuo kintamojo kryptimis
Matomumas 10 km arba daugiau
Išsisklaidę debesys ne aukštis 4000 ft
Laikinai
nuo 18 metu 06 UTC su 18 metu 18 UTC
lietus
Tapsmas
nuo 18 metu 09 UTC su 18 metu 11 UTC
Vėjas 10 kt iš Šiaurės/Šiaurės Rytų

TAF: LIPQ 172300Z 1800/1824 VRB04KT 9999 SCT040 TEMPO 1806/1818 RA BECMG 1809/1811 03010KT

Orai ataskaitas ir orų prognozės (METAR, TAF).

turimą stotys yra geltonos ir raudonos taškus žemėlapyje.

Perkelti pele per norėdami pamatyti stoties vardą.

Tada spustelėkite, norėdami matyti oro stebėjimo ir prognozės.

Norėdami pakeisti žemėlapį: spustelėkite ant žalios mygtukų su juodo kryžiaus žemyn,; žalią mygtuką su brūkšneliu, jei norite nutolinti; arba žalių rodyklių gretimoms žemėlapius.


METAR-TAF: